Time;durP1;ratioP1;P1;durP2;ratioP2;P2;SDS_P1;SDS_P2;PMS_P1;PMS_P2;Temp;Humidity;BMP_temperature;BMP_pressure;BME280_temperature;BME280_humidity;BME280_pressure;Samples;Min_cycle;Max_cycle;Signal;HPM_P1;HPM_P2
2021/09/30 00:00:12;;;;;;;1.35;0.40;;;12.70;67.40;;;;;;2332681;54;20999;-67
2021/09/30 00:02:39;;;;;;;1.70;0.40;;;12.70;67.10;;;;;;2328040;54;20971;-70
2021/09/30 00:05:08;;;;;;;2.50;0.50;;;12.70;67.20;;;;;;2385891;53;20931;-66
2021/09/30 00:07:34;;;;;;;1.12;0.40;;;12.70;67.90;;;;;;2322132;54;20931;-67
2021/09/30 00:10:01;;;;;;;1.95;0.30;;;12.60;67.10;;;;;;2397697;52;21086;-68
2021/09/30 00:12:32;;;;;;;1.27;0.45;;;12.60;67.10;;;;;;2330686;54;21870;-69
2021/09/30 00:15:06;;;;;;;1.80;0.47;;;12.60;67.10;;;;;;2336752;54;21460;-68
2021/09/30 00:34:17;;;;;;;1.27;0.60;;;12.50;67.20;;;;;;2328389;54;20939;-69
2021/09/30 00:40:56;;;;;;;1.10;0.40;;;12.50;67.30;;;;;;2325140;54;20995;-70
2021/09/30 00:46:13;;;;;;;0.93;0.37;;;12.40;67.20;;;;;;2380061;53;20907;-68
2021/09/30 00:54:29;;;;;;;0.90;0.37;;;12.40;67.40;;;;;;2413465;53;21405;-68
2021/09/30 01:47:02;;;;;;;0.88;0.30;;;12.30;67.60;;;;;;2558361;53;21006;-68
2021/09/30 02:19:56;;;;;;;0.93;0.30;;;12.10;67.70;;;;;;2311850;55;20974;-68
2021/09/30 02:23:14;;;;;;;2.22;0.40;;;12.10;67.70;;;;;;2328977;54;21003;-67
2021/09/30 02:59:54;;;;;;;1.55;0.50;;;12.00;67.80;;;;;;2345221;55;20986;-67
2021/09/30 03:02:20;;;;;;;1.20;0.40;;;12.00;67.80;;;;;;2341333;54;20995;-67
2021/09/30 03:04:47;;;;;;;1.83;0.40;;;12.00;67.80;;;;;;2323491;54;21026;-70
2021/09/30 03:07:14;;;;;;;2.12;0.50;;;12.00;67.90;;;;;;2341594;54;20916;-68
2021/09/30 03:09:42;;;;;;;3.65;0.55;;;12.00;67.90;;;;;;2322152;54;20946;-70
2021/09/30 03:12:22;;;;;;;1.73;0.50;;;11.90;67.70;;;;;;2342892;53;20994;-67
2021/09/30 03:24:01;;;;;;;3.30;0.60;;;11.90;67.80;;;;;;2427731;53;21875;-67
2021/09/30 03:26:27;;;;;;;1.80;0.52;;;11.90;67.80;;;;;;2317206;54;20939;-70
2021/09/30 03:28:54;;;;;;;2.83;0.65;;;11.90;67.80;;;;;;2341730;55;20968;-66
2021/09/30 03:31:20;;;;;;;1.83;0.52;;;11.90;67.80;;;;;;2321939;55;20971;-68
2021/09/30 03:33:47;;;;;;;1.67;0.50;;;11.90;67.80;;;;;;2368609;53;20942;-68
2021/09/30 03:36:14;;;;;;;0.80;0.30;;;11.90;67.80;;;;;;2330341;54;21003;-70
2021/09/30 03:38:40;;;;;;;1.95;0.50;;;11.90;67.80;;;;;;2531024;53;20963;-69
2021/09/30 03:41:07;;;;;;;1.48;0.37;;;11.90;67.80;;;;;;2321912;54;20931;-67
2021/09/30 03:43:34;;;;;;;1.08;0.40;;;11.90;67.80;;;;;;2339745;55;20944;-67
2021/09/30 03:46:00;;;;;;;1.52;0.55;;;11.90;67.80;;;;;;2338125;54;21078;-70
2021/09/30 03:48:28;;;;;;;0.43;0.30;;;11.90;67.80;;;;;;2515527;53;20928;-67
2021/09/30 03:51:10;;;;;;;0.90;0.40;;;11.90;67.80;;;;;;2341934;55;20963;-70
2021/09/30 04:00:24;;;;;;;1.48;0.60;;;11.90;67.80;;;;;;2493004;54;21885;-70
2021/09/30 04:02:53;;;;;;;0.75;0.30;;;11.90;67.80;;;;;;2317291;54;20935;-68
2021/09/30 04:05:19;;;;;;;0.98;0.35;;;11.90;67.80;;;;;;2340397;54;21031;-69
2021/09/30 04:07:45;;;;;;;1.50;0.40;;;11.80;67.80;;;;;;2335114;54;21035;-66
2021/09/30 04:10:12;;;;;;;1.52;0.40;;;11.80;67.80;;;;;;2327610;54;20935;-67
2021/09/30 04:12:38;;;;;;;1.77;0.43;;;11.80;67.80;;;;;;2341854;54;21745;-67
2021/09/30 04:15:05;;;;;;;1.00;0.40;;;11.80;67.80;;;;;;2344518;55;20955;-69
2021/09/30 04:17:32;;;;;;;2.12;0.45;;;11.80;67.80;;;;;;2320156;54;21768;-67
2021/09/30 04:20:07;;;;;;;1.52;0.50;;;11.80;67.80;;;;;;2321907;54;21086;-68
2021/09/30 04:22:33;;;;;;;1.80;0.50;;;11.80;67.80;;;;;;2342033;55;21396;-68
2021/09/30 04:24:59;;;;;;;2.05;0.62;;;11.80;67.80;;;;;;2333027;54;20951;-71
2021/09/30 04:27:26;;;;;;;1.52;0.50;;;11.80;67.80;;;;;;2330445;54;20951;-67
2021/09/30 04:29:53;;;;;;;0.73;0.40;;;11.80;67.80;;;;;;2324004;54;20974;-70
2021/09/30 04:32:19;;;;;;;0.90;0.40;;;11.80;67.80;;;;;;2340590;54;20948;-70
2021/09/30 04:34:45;;;;;;;2.30;0.50;;;11.80;67.80;;;;;;2324147;54;21909;-69
2021/09/30 04:37:13;;;;;;;1.55;0.50;;;11.80;67.80;;;;;;2333723;54;20961;-68
2021/09/30 04:39:39;;;;;;;1.42;0.55;;;11.80;67.90;;;;;;2320248;54;21026;-69
2021/09/30 04:42:06;;;;;;;1.10;0.40;;;11.80;67.90;;;;;;2341865;54;20951;-71
2021/09/30 04:44:32;;;;;;;0.85;0.40;;;11.80;67.90;;;;;;2334166;54;21536;-68
2021/09/30 04:47:04;;;;;;;1.23;0.60;;;11.80;67.90;;;;;;2317799;54;20978;-71
2021/09/30 04:49:30;;;;;;;1.05;0.40;;;11.80;67.80;;;;;;2342120;54;21722;-69
2021/09/30 04:51:57;;;;;;;0.70;0.37;;;11.70;67.70;;;;;;2467638;53;21852;-68
2021/09/30 04:54:24;;;;;;;3.25;0.65;;;11.70;67.70;;;;;;2317425;54;1296398;-70
2021/09/30 04:56:50;;;;;;;2.65;0.70;;;11.70;67.80;;;;;;2332803;54;20920;-68
2021/09/30 04:59:17;;;;;;;1.70;0.70;;;11.70;67.70;;;;;;2339048;55;21026;-69
2021/09/30 05:01:46;;;;;;;2.03;0.70;;;11.70;67.50;;;;;;2325208;54;20979;-67
2021/09/30 05:04:12;;;;;;;1.50;0.60;;;11.70;67.40;;;;;;2341526;55;20963;-67
2021/09/30 05:06:38;;;;;;;2.05;0.95;;;11.70;67.30;;;;;;2322856;55;20943;-68
2021/09/30 05:09:05;;;;;;;1.87;0.70;;;11.60;67.10;;;;;;2324114;54;20947;-70
2021/09/30 05:11:35;;;;;;;2.83;0.80;;;11.60;67.10;;;;;;2323227;54;20971;-69
2021/09/30 05:14:02;;;;;;;1.90;0.70;;;11.60;67.10;;;;;;2340097;54;20951;-69
2021/09/30 05:16:29;;;;;;;1.50;0.60;;;11.50;67.00;;;;;;2341813;55;20956;-67
2021/09/30 05:18:56;;;;;;;2.90;0.82;;;11.50;67.00;;;;;;2343856;54;21590;-69
2021/09/30 05:21:23;;;;;;;2.28;0.80;;;11.50;67.10;;;;;;2321100;54;20967;-67
2021/09/30 05:23:51;;;;;;;2.37;0.68;;;11.40;67.10;;;;;;2341402;55;20983;-70
2021/09/30 05:26:18;;;;;;;4.28;1.75;;;11.40;67.30;;;;;;2341928;55;20967;-69
2021/09/30 05:28:44;;;;;;;3.72;1.50;;;11.40;67.40;;;;;;2341294;55;20972;-70
2021/09/30 05:31:11;;;;;;;4.37;1.73;;;11.40;67.50;;;;;;2342073;55;21003;-69
2021/09/30 05:33:37;;;;;;;3.72;1.45;;;11.40;67.70;;;;;;2342184;55;20927;-69
2021/09/30 05:36:04;;;;;;;3.20;1.30;;;11.40;67.70;;;;;;2342134;55;20999;-66
2021/09/30 05:38:31;;;;;;;3.05;0.90;;;11.30;67.70;;;;;;2470933;53;21692;-66
2021/09/30 05:40:57;;;;;;;2.90;1.20;;;11.30;67.80;;;;;;2341310;55;20956;-67
2021/09/30 05:43:31;;;;;;;1.77;0.60;;;11.30;67.80;;;;;;2342197;55;20976;-66
2021/09/30 05:45:59;;;;;;;2.53;1.35;;;11.30;67.80;;;;;;2341693;55;21011;-67
2021/09/30 05:48:26;;;;;;;1.92;0.60;;;11.30;67.80;;;;;;2342400;55;21447;-68
2021/09/30 05:50:52;;;;;;;1.42;0.50;;;11.30;68.10;;;;;;2343715;55;20939;-68
2021/09/30 05:53:20;;;;;;;2.78;0.80;;;11.30;68.10;;;;;;2561370;53;21644;-69
2021/09/30 05:55:46;;;;;;;1.77;0.60;;;11.30;67.70;;;;;;2341824;55;20975;-66
2021/09/30 05:58:13;;;;;;;2.58;0.68;;;11.30;67.60;;;;;;2342038;54;21070;-67
2021/09/30 06:14:38;;;;;;;2.08;0.82;;;11.30;67.60;;;;;;2342108;55;21074;-67
2021/09/30 06:17:05;;;;;;;3.58;1.08;;;11.30;67.70;;;;;;2321827;54;21863;-68
2021/09/30 06:19:31;;;;;;;5.37;1.20;;;11.30;67.80;;;;;;2337748;54;20982;-68
2021/09/30 06:21:58;;;;;;;2.58;1.00;;;11.20;67.80;;;;;;2569671;53;20939;-68
2021/09/30 06:24:27;;;;;;;4.20;1.00;;;11.20;67.90;;;;;;2341976;55;20923;-71
2021/09/30 06:26:53;;;;;;;2.67;0.80;;;11.20;68.00;;;;;;2321154;54;21476;-69
2021/09/30 06:29:20;;;;;;;1.60;0.80;;;11.20;68.10;;;;;;2342179;55;20943;-68
2021/09/30 06:31:47;;;;;;;1.83;0.60;;;11.20;68.20;;;;;;2314881;55;20999;-70
2021/09/30 06:34:13;;;;;;;2.20;0.70;;;11.20;68.20;;;;;;2327768;54;21013;-70
2021/09/30 06:36:40;;;;;;;1.70;0.60;;;11.30;68.40;;;;;;2322822;54;20927;-69
2021/09/30 06:39:07;;;;;;;0.88;0.43;;;11.30;68.50;;;;;;2342047;55;20923;-70
2021/09/30 06:41:33;;;;;;;2.15;0.50;;;11.30;68.50;;;;;;2342206;55;21492;-70
2021/09/30 06:44:15;;;;;;;0.98;0.50;;;11.30;68.50;;;;;;2342217;54;20972;-66
2021/09/30 06:46:42;;;;;;;1.27;0.50;;;11.30;68.50;;;;;;2342184;55;21857;-67
2021/09/30 06:49:08;;;;;;;1.55;0.60;;;11.30;68.70;;;;;;2333949;54;20984;-68
2021/09/30 06:51:35;;;;;;;2.78;1.20;;;11.40;68.90;;;;;;2332707;54;21000;-68
2021/09/30 06:54:05;;;;;;;2.92;1.15;;;11.40;69.10;;;;;;2342031;55;21023;-69
2021/09/30 06:56:34;;;;;;;2.62;1.12;;;11.40;69.20;;;;;;2342718;55;20928;-69
2021/09/30 06:59:06;;;;;;;2.87;1.10;;;11.50;69.50;;;;;;2342451;55;20939;-67
2021/09/30 07:01:35;;;;;;;3.10;1.02;;;11.50;69.60;;;;;;2318152;54;21570;-66
2021/09/30 07:04:04;;;;;;;2.80;1.02;;;11.50;69.70;;;;;;2331585;54;21262;-70
2021/09/30 07:06:31;;;;;;;2.15;0.90;;;11.60;69.90;;;;;;2339712;54;20975;-71
2021/09/30 07:08:57;;;;;;;2.97;1.02;;;11.70;70.10;;;;;;2324732;54;20928;-71
2021/09/30 07:11:24;;;;;;;5.07;1.10;;;11.70;70.10;;;;;;2323605;55;20962;-69
2021/09/30 07:13:50;;;;;;;2.85;1.02;;;11.80;70.30;;;;;;2330288;54;21054;-70
2021/09/30 07:16:17;;;;;;;3.00;0.93;;;11.90;70.40;;;;;;2334983;54;21011;-70
2021/09/30 07:18:43;;;;;;;2.75;1.00;;;12.00;70.50;;;;;;2321567;54;21228;-69
2021/09/30 07:21:09;;;;;;;2.70;1.30;;;12.00;70.40;;;;;;2341966;55;21884;-68
2021/09/30 07:23:36;;;;;;;3.80;1.10;;;12.10;70.50;;;;;;2341763;55;21562;-68
2021/09/30 07:26:03;;;;;;;2.42;1.00;;;12.20;70.60;;;;;;2432433;53;21450;-70
2021/09/30 07:28:29;;;;;;;3.47;1.33;;;12.30;70.70;;;;;;2341969;55;20975;-70
2021/09/30 07:30:55;;;;;;;3.62;1.48;;;12.40;70.80;;;;;;2323518;54;20990;-69
2021/09/30 07:33:21;;;;;;;3.55;1.58;;;12.40;70.70;;;;;;2559507;53;20912;-67
2021/09/30 07:35:48;;;;;;;4.70;1.80;;;12.50;70.80;;;;;;2342042;54;20971;-69
2021/09/30 07:38:14;;;;;;;3.17;1.45;;;12.60;70.80;;;;;;2342074;55;21405;-68
2021/09/30 07:40:40;;;;;;;3.62;1.45;;;12.70;71.00;;;;;;2336748;54;21026;-71
2021/09/30 07:43:07;;;;;;;3.87;1.48;;;12.80;71.20;;;;;;2324899;54;21834;-68
2021/09/30 07:45:33;;;;;;;3.50;1.62;;;12.90;71.30;;;;;;2322749;54;22137;-66
2021/09/30 07:48:00;;;;;;;3.05;1.40;;;12.90;71.20;;;;;;2328539;54;21027;-70
2021/09/30 07:50:26;;;;;;;3.20;1.30;;;13.00;71.20;;;;;;2335668;54;20947;-69
2021/09/30 07:52:53;;;;;;;3.12;1.20;;;13.10;71.20;;;;;;2342016;55;20983;-71
2021/09/30 07:55:19;;;;;;;2.78;1.12;;;13.20;71.30;;;;;;2341249;55;21002;-66
2021/09/30 07:57:45;;;;;;;2.60;0.98;;;13.30;71.30;;;;;;2320855;54;20948;-66
2021/09/30 08:00:12;;;;;;;3.10;1.00;;;13.40;71.30;;;;;;2341818;54;20987;-69
2021/09/30 08:02:38;;;;;;;3.15;1.10;;;13.50;71.20;;;;;;2319764;54;20978;-71
2021/09/30 08:05:06;;;;;;;2.28;0.95;;;13.60;71.10;;;;;;2326318;54;21042;-68
2021/09/30 08:07:36;;;;;;;2.50;1.05;;;13.70;71.00;;;;;;2561199;53;21007;-71
2021/09/30 08:10:03;;;;;;;2.62;1.00;;;13.80;71.00;;;;;;2333194;53;21044;-70
2021/09/30 08:12:30;;;;;;;1.95;0.73;;;13.80;71.60;;;;;;2341471;54;20920;-68
2021/09/30 08:14:56;;;;;;;3.30;0.85;;;13.90;70.90;;;;;;2350946;53;21006;-67
2021/09/30 08:17:23;;;;;;;2.33;0.90;;;14.00;71.00;;;;;;2322877;54;20936;-68
2021/09/30 08:19:52;;;;;;;2.65;0.98;;;14.10;71.00;;;;;;2342253;55;20951;-70
2021/09/30 08:22:24;;;;;;;3.00;0.95;;;14.20;70.90;;;;;;2338521;54;21118;-68
2021/09/30 08:24:50;;;;;;;2.85;0.90;;;14.20;70.80;;;;;;2327698;54;21015;-72
2021/09/30 08:27:17;;;;;;;2.17;0.98;;;14.30;71.00;;;;;;2341899;55;21230;-70
2021/09/30 08:29:43;;;;;;;3.12;1.25;;;14.40;71.10;;;;;;2339223;54;21031;-70
2021/09/30 08:32:11;;;;;;;4.03;1.60;;;14.50;71.20;;;;;;2326035;54;20947;-71
2021/09/30 08:34:37;;;;;;;3.85;1.80;;;14.60;71.30;;;;;;2342351;55;20960;-72
2021/09/30 08:37:18;;;;;;;4.75;2.20;;;14.80;71.40;;;;;;2342297;55;21002;-71
2021/09/30 08:39:44;;;;;;;4.35;2.25;;;14.90;70.60;;;;;;2555578;53;21275;-71
2021/09/30 08:42:11;;;;;;;4.82;1.87;;;15.00;71.20;;;;;;2574387;53;20943;-69
2021/09/30 08:44:37;;;;;;;3.72;1.85;;;15.10;71.40;;;;;;2299311;55;21329;-69
2021/09/30 08:47:04;;;;;;;4.62;2.00;;;15.20;72.20;;;;;;2335457;54;20999;-70
2021/09/30 08:49:34;;;;;;;4.70;1.70;;;15.30;71.30;;;;;;2569949;53;21852;-72
2021/09/30 08:52:04;;;;;;;3.50;1.45;;;15.50;71.40;;;;;;2318396;54;21022;-71
2021/09/30 08:54:30;;;;;;;5.20;1.50;;;15.60;71.30;;;;;;2340254;54;21512;-69
2021/09/30 08:56:57;;;;;;;5.25;1.48;;;15.70;71.30;;;;;;2342123;55;21070;-69
2021/09/30 08:59:27;;;;;;;3.60;1.15;;;15.80;70.80;;;;;;2365463;53;21099;-69
2021/09/30 09:02:15;;;;;;;2.70;0.73;;;16.00;70.60;;;;;;2571552;53;21406;-68
2021/09/30 09:04:57;;;;;;;2.03;0.60;;;16.10;69.70;;;;;;2340854;54;21038;-71
2021/09/30 09:07:27;;;;;;;2.37;0.60;;;16.20;69.60;;;;;;2322503;54;20967;-67
2021/09/30 09:09:58;;;;;;;1.48;0.57;;;16.30;70.00;;;;;;2333583;54;20971;-66
2021/09/30 09:12:26;;;;;;;2.12;0.70;;;16.30;70.00;;;;;;2326909;54;20942;-68
2021/09/30 09:14:52;;;;;;;1.80;0.60;;;16.40;69.40;;;;;;2341752;54;20932;-69
2021/09/30 09:17:20;;;;;;;3.15;0.52;;;16.50;69.40;;;;;;2345955;54;21349;-69
2021/09/30 09:19:52;;;;;;;1.25;0.50;;;16.60;69.90;;;;;;2316467;54;20958;-71
2021/09/30 09:22:27;;;;;;;0.90;0.40;;;16.70;68.90;;;;;;2369091;54;21067;-67
2021/09/30 09:25:05;;;;;;;1.25;0.45;;;16.80;68.90;;;;;;2326805;54;21075;-69
2021/09/30 09:29:23;;;;;;;3.72;1.15;;;16.90;69.10;;;;;;2339626;54;20947;-68
2021/09/30 09:31:52;;;;;;;1.98;0.50;;;17.00;67.10;;;;;;2329103;54;21022;-68
2021/09/30 09:34:32;;;;;;;1.00;0.37;;;17.00;68.50;;;;;;2337404;54;20920;-71
2021/09/30 09:37:32;;;;;;;1.67;0.50;;;17.10;67.90;;;;;;2588483;53;20963;-72
2021/09/30 09:40:12;;;;;;;1.45;0.30;;;17.20;67.20;;;;;;2343890;54;21046;-70
2021/09/30 09:42:38;;;;;;;2.10;0.50;;;17.30;68.10;;;;;;2484711;53;20948;-71
2021/09/30 09:45:13;;;;;;;1.27;0.30;;;17.30;68.20;;;;;;2325274;54;21009;-70
2021/09/30 09:47:41;;;;;;;1.83;0.30;;;17.40;67.60;;;;;;2504328;53;21079;-71
2021/09/30 09:51:09;;;;;;;1.85;0.50;;;17.50;68.00;;;;;;2342517;55;20955;-69
2021/09/30 09:53:37;;;;;;;2.87;0.50;;;17.60;66.10;;;;;;2556930;53;21449;-70
2021/09/30 09:56:17;;;;;;;1.23;0.30;;;17.70;67.60;;;;;;2316738;54;21011;-67
2021/09/30 09:58:48;;;;;;;2.17;0.70;;;17.70;66.70;;;;;;2343643;53;20959;-69
2021/09/30 10:01:14;;;;;;;1.98;0.40;;;17.80;66.90;;;;;;2342009;55;20927;-68
2021/09/30 10:03:50;;;;;;;2.97;0.40;;;17.80;66.60;;;;;;2441552;53;21016;-68
2021/09/30 10:06:16;;;;;;;1.23;0.40;;;17.90;65.70;;;;;;2324222;54;20962;-70
2021/09/30 10:08:43;;;;;;;1.45;0.40;;;18.00;66.30;;;;;;2341295;54;21586;-69
2021/09/30 10:11:09;;;;;;;2.03;0.45;;;18.00;65.80;;;;;;2337892;54;21042;-67
2021/09/30 10:13:37;;;;;;;1.37;0.40;;;18.00;65.40;;;;;;2546212;53;21883;-71
2021/09/30 10:16:04;;;;;;;1.05;0.40;;;18.10;65.40;;;;;;2327479;54;20951;-71
2021/09/30 10:18:32;;;;;;;0.88;0.32;;;18.10;65.20;;;;;;2342923;55;21091;-70
2021/09/30 10:20:58;;;;;;;2.53;0.60;;;18.20;65.30;;;;;;2342437;55;20992;-70
2021/09/30 10:23:26;;;;;;;1.55;0.50;;;18.20;65.10;;;;;;2339416;53;20943;-70
2021/09/30 10:26:10;;;;;;;1.77;0.60;;;18.20;64.80;;;;;;2342278;55;20999;-68
2021/09/30 10:28:40;;;;;;;1.90;0.60;;;18.30;64.10;;;;;;2566306;53;20994;-68
2021/09/30 10:32:58;;;;;;;2.22;0.80;;;18.30;64.40;;;;;;2339308;54;20931;-69
2021/09/30 10:38:20;;;;;;;1.67;0.50;;;18.40;62.80;;;;;;2323047;55;20963;-72
2021/09/30 10:44:34;;;;;;;3.28;0.50;;;18.60;63.40;;;;;;2337627;54;22006;-68
2021/09/30 10:47:06;;;;;;;2.83;0.90;;;18.70;62.70;;;;;;2589037;53;21444;-71
2021/09/30 10:49:53;;;;;;;;;;;18.70;64.30;;;;;;2345969;54;20984;-68
2021/09/30 10:52:25;;;;;;;0.93;0.40;;;18.80;62.90;;;;;;2589112;53;20617;-69
2021/09/30 10:55:37;;;;;;;1.75;0.50;;;18.80;64.30;;;;;;2342766;55;20979;-69
2021/09/30 10:58:10;;;;;;;2.30;0.65;;;18.90;63.00;;;;;;2446275;53;20960;-68
2021/09/30 11:00:58;;;;;;;1.27;0.37;;;18.90;64.50;;;;;;2338579;54;20943;-71
2021/09/30 11:03:24;;;;;;;3.30;0.50;;;19.00;62.60;;;;;;2588718;53;20963;-69
2021/09/30 11:07:42;;;;;;;1.15;0.50;;;18.90;63.80;;;;;;2342408;54;21043;-68
2021/09/30 11:10:21;;;;;;;3.72;0.40;;;19.00;61.90;;;;;;2509640;53;21034;-71
2021/09/30 11:13:18;;;;;;;1.52;0.40;;;19.00;63.20;;;;;;2322932;54;20951;-70
2021/09/30 11:19:49;;;;;;;1.20;0.45;;;19.10;61.40;;;;;;2342169;54;20968;-71
2021/09/30 11:22:39;;;;;;;2.78;0.40;;;19.10;61.80;;;;;;2337528;54;21688;-71
2021/09/30 11:25:05;;;;;;;1.35;0.40;;;19.10;62.10;;;;;;2537126;52;21076;-67
2021/09/30 11:27:32;;;;;;;2.47;0.43;;;19.10;63.00;;;;;;2329348;54;21488;-68
2021/09/30 11:30:30;;;;;;;1.15;0.30;;;19.20;62.50;;;;;;2326107;54;20920;-70
2021/09/30 11:32:59;;;;;;;1.33;0.45;;;19.20;60.90;;;;;;2341679;54;21510;-70
2021/09/30 11:35:25;;;;;;;3.60;0.57;;;19.20;62.30;;;;;;2322834;54;20983;-71
2021/09/30 11:37:51;;;;;;;1.35;0.40;;;19.20;62.30;;;;;;2342049;55;21025;-72
2021/09/30 11:40:19;;;;;;;2.08;0.52;;;19.20;62.00;;;;;;2326617;54;20996;-68
2021/09/30 11:42:55;;;;;;;1.40;0.40;;;19.30;62.10;;;;;;2327326;54;21919;-68
2021/09/30 11:45:26;;;;;;;2.17;0.37;;;19.40;62.10;;;;;;2334097;54;21440;-71
2021/09/30 11:48:01;;;;;;;1.30;0.30;;;19.40;61.90;;;;;;2342036;55;21031;-72
2021/09/30 11:50:29;;;;;;;2.33;0.65;;;19.50;61.10;;;;;;2342156;55;21078;-70
2021/09/30 11:52:57;;;;;;;1.08;0.40;;;19.50;61.80;;;;;;2342188;55;20963;-67
2021/09/30 11:55:27;;;;;;;1.70;0.40;;;19.60;61.40;;;;;;2342010;55;21007;-67
2021/09/30 11:57:57;;;;;;;1.70;0.50;;;19.60;61.10;;;;;;2561532;53;20995;-66
2021/09/30 12:00:24;;;;;;;1.95;0.60;;;19.70;60.30;;;;;;2339758;54;21436;-67
2021/09/30 12:03:09;;;;;;;1.58;0.45;;;19.70;60.10;;;;;;2460096;53;21039;-66
2021/09/30 12:05:37;;;;;;;0.80;0.22;;;19.80;58.80;;;;;;2311562;54;21848;-67
2021/09/30 12:08:06;;;;;;;0.80;0.20;;;19.80;60.00;;;;;;2335035;55;21014;-66
2021/09/30 12:10:34;;;;;;;1.65;0.40;;;19.80;59.80;;;;;;2342187;55;20995;-67
2021/09/30 12:13:10;;;;;;;1.23;0.30;;;19.80;59.80;;;;;;2343493;55;21524;-66
2021/09/30 12:15:36;;;;;;;2.08;0.32;;;19.80;59.90;;;;;;2562764;52;20924;-68
2021/09/30 12:18:04;;;;;;;1.42;0.30;;;19.80;59.90;;;;;;2343679;55;20917;-68
2021/09/30 12:20:30;;;;;;;1.37;0.40;;;19.90;59.70;;;;;;2397059;53;20954;-66
2021/09/30 12:23:00;;;;;;;1.75;0.40;;;19.90;59.70;;;;;;2336357;54;20923;-69
2021/09/30 12:25:29;;;;;;;1.77;0.30;;;20.00;59.30;;;;;;2320172;54;21031;-70
2021/09/30 12:27:57;;;;;;;0.88;0.30;;;20.00;59.30;;;;;;2329566;54;20946;-66
2021/09/30 12:30:27;;;;;;;1.33;0.37;;;20.10;59.50;;;;;;2340521;54;21002;-72
2021/09/30 12:33:00;;;;;;;1.40;0.35;;;20.10;59.00;;;;;;2330438;54;20995;-74
2021/09/30 12:35:29;;;;;;;1.33;0.30;;;20.10;58.60;;;;;;2326045;54;21884;-71
2021/09/30 12:37:56;;;;;;;0.80;0.30;;;20.10;58.90;;;;;;2330463;54;20935;-67
2021/09/30 12:40:26;;;;;;;0.35;0.20;;;20.10;58.80;;;;;;2334757;54;20982;-67
2021/09/30 12:43:04;;;;;;;1.40;0.43;;;20.20;58.80;;;;;;2321625;54;20936;-70
2021/09/30 12:45:31;;;;;;;1.70;0.50;;;20.20;57.90;;;;;;2324023;54;20946;-70
2021/09/30 12:48:03;;;;;;;3.03;0.60;;;20.20;58.80;;;;;;2343902;55;21015;-66
2021/09/30 12:50:40;;;;;;;1.35;0.30;;;20.20;58.10;;;;;;2590399;53;20952;-70
2021/09/30 12:53:06;;;;;;;0.62;0.22;;;20.30;57.80;;;;;;2590055;53;20955;-69
2021/09/30 12:55:33;;;;;;;1.62;0.32;;;20.30;58.70;;;;;;2322746;54;20987;-67
2021/09/30 12:58:00;;;;;;;0.73;0.20;;;20.30;58.60;;;;;;2343688;55;20987;-70
2021/09/30 13:00:32;;;;;;;0.77;0.17;;;20.40;58.50;;;;;;2414810;53;20994;-68
2021/09/30 13:03:13;;;;;;;1.12;0.30;;;20.40;58.10;;;;;;2333505;54;21817;-66
2021/09/30 13:05:49;;;;;;;1.95;0.35;;;20.50;57.20;;;;;;2333649;54;20934;-66
2021/09/30 13:15:04;;;;;;;0.93;0.22;;;20.50;57.70;;;;;;2336876;55;20931;-67
2021/09/30 13:17:31;;;;;;;0.73;0.28;;;20.70;57.80;;;;;;2590509;53;20928;-66
2021/09/30 13:20:07;;;;;;;1.87;0.25;;;20.70;59.20;;;;;;2336483;54;20986;-66
2021/09/30 13:22:42;;;;;;;1.05;0.20;;;20.70;57.70;;;;;;2578726;53;20951;-70
2021/09/30 13:25:15;;;;;;;1.05;0.30;;;20.70;57.60;;;;;;2417307;53;20920;-67
2021/09/30 13:27:41;;;;;;;0.57;0.15;;;20.70;58.30;;;;;;2570937;53;20995;-68
2021/09/30 13:30:09;;;;;;;0.93;0.22;;;20.70;58.40;;;;;;2323300;54;20967;-68
2021/09/30 13:32:36;;;;;;;0.95;0.30;;;20.80;58.10;;;;;;2343862;55;20971;-68
2021/09/30 13:35:03;;;;;;;1.30;0.40;;;20.80;58.00;;;;;;2343821;55;20972;-66
2021/09/30 13:37:30;;;;;;;1.52;0.50;;;20.80;57.60;;;;;;2334605;54;21348;-65
2021/09/30 13:39:59;;;;;;;2.53;0.30;;;20.80;57.20;;;;;;2331201;54;21534;-69
2021/09/30 13:42:28;;;;;;;1.35;0.30;;;20.80;57.30;;;;;;2543052;53;20999;-67
2021/09/30 13:44:56;;;;;;;1.67;0.40;;;20.80;57.00;;;;;;2306876;54;20967;-66
2021/09/30 13:47:24;;;;;;;0.47;0.17;;;20.80;57.10;;;;;;2436813;53;20967;-65
2021/09/30 13:49:50;;;;;;;1.55;0.20;;;20.80;56.90;;;;;;2364128;53;21557;-70
2021/09/30 13:52:17;;;;;;;2.40;0.40;;;20.90;56.90;;;;;;2343841;53;21940;-70
2021/09/30 13:54:43;;;;;;;1.12;0.30;;;20.90;56.80;;;;;;2344976;54;21405;-70
2021/09/30 13:57:10;;;;;;;1.33;0.30;;;20.90;56.80;;;;;;2327607;54;20947;-66
2021/09/30 13:59:37;;;;;;;0.43;0.10;;;21.00;56.80;;;;;;2419491;53;20991;-67
2021/09/30 14:02:35;;;;;;;0.50;0.30;;;21.00;56.70;;;;;;2339744;54;20975;-67
2021/09/30 14:05:03;;;;;;;2.62;0.30;;;21.10;56.80;;;;;;2323096;54;21021;-65
2021/09/30 14:07:30;;;;;;;0.88;0.20;;;21.20;56.50;;;;;;2324511;55;20939;-65
2021/09/30 14:09:58;;;;;;;1.42;0.30;;;21.20;56.20;;;;;;2523197;53;21007;-65
2021/09/30 14:12:27;;;;;;;0.95;0.30;;;21.30;56.20;;;;;;2453120;53;21944;-65
2021/09/30 14:14:53;;;;;;;1.23;0.20;;;21.30;55.90;;;;;;2343258;55;20957;-67
2021/09/30 14:17:20;;;;;;;1.30;0.30;;;21.30;55.80;;;;;;2347401;53;21062;-66
2021/09/30 14:19:47;;;;;;;1.23;0.25;;;21.40;56.60;;;;;;2344369;53;21000;-69
2021/09/30 14:22:13;;;;;;;0.70;0.28;;;21.40;56.10;;;;;;2575962;52;21003;-71
2021/09/30 14:24:39;;;;;;;1.77;0.40;;;21.50;56.40;;;;;;2321878;54;20924;-66
2021/09/30 14:27:06;;;;;;;1.95;0.65;;;21.60;56.40;;;;;;2590295;53;20996;-66
2021/09/30 14:29:33;;;;;;;1.37;0.20;;;21.60;56.20;;;;;;2343326;54;20966;-66
2021/09/30 14:31:59;;;;;;;1.12;0.20;;;21.70;56.20;;;;;;2319885;54;20986;-65
2021/09/30 14:34:26;;;;;;;2.00;0.30;;;21.80;56.00;;;;;;2336147;54;21340;-66
2021/09/30 14:36:52;;;;;;;1.90;0.30;;;21.80;55.90;;;;;;2343317;55;20936;-65
2021/09/30 14:39:19;;;;;;;1.15;0.20;;;21.90;55.50;;;;;;2339689;54;21752;-66
2021/09/30 14:41:45;;;;;;;2.62;0.50;;;21.90;55.30;;;;;;2327325;54;21081;-69
2021/09/30 14:44:11;;;;;;;2.35;0.65;;;21.90;55.00;;;;;;2590701;53;21019;-66
2021/09/30 14:46:38;;;;;;;1.02;0.30;;;21.90;54.60;;;;;;2316296;53;21005;-68
2021/09/30 14:49:04;;;;;;;1.05;0.30;;;21.90;54.50;;;;;;2330695;54;21010;-66
2021/09/30 14:51:30;;;;;;;1.15;0.37;;;21.90;54.20;;;;;;2524612;52;20982;-65
2021/09/30 14:53:57;;;;;;;2.78;0.50;;;21.90;54.20;;;;;;2338324;54;20931;-66
2021/09/30 14:56:23;;;;;;;1.10;0.28;;;21.90;54.00;;;;;;2343840;55;21276;-65
2021/09/30 14:58:55;;;;;;;0.93;0.30;;;21.80;53.90;;;;;;2474762;53;21434;-71
2021/09/30 15:01:22;;;;;;;2.28;0.20;;;21.80;53.90;;;;;;2560462;53;20995;-66
2021/09/30 15:03:49;;;;;;;1.08;0.28;;;21.90;53.80;;;;;;2343923;55;20951;-67
2021/09/30 15:06:18;;;;;;;1.27;0.30;;;21.80;53.50;;;;;;2590575;53;20971;-67
2021/09/30 15:08:45;;;;;;;0.95;0.30;;;21.80;53.00;;;;;;2420027;54;21003;-68
2021/09/30 15:11:12;;;;;;;0.82;0.30;;;21.70;53.10;;;;;;2343488;55;21421;-68
2021/09/30 15:13:38;;;;;;;0.73;0.25;;;21.60;52.90;;;;;;2345282;55;21082;-70
2021/09/30 15:16:08;;;;;;;1.00;0.25;;;21.60;53.00;;;;;;2589828;53;21000;-66
2021/09/30 15:22:02;;;;;;;0.85;0.22;;;21.40;53.00;;;;;;2335125;54;20955;-65
2021/09/30 15:24:29;;;;;;;1.55;0.30;;;21.30;53.10;;;;;;2344039;55;20948;-65
2021/09/30 15:26:55;;;;;;;0.95;0.20;;;21.30;53.10;;;;;;2343803;55;21022;-65
2021/09/30 15:29:21;;;;;;;1.48;0.40;;;21.20;53.10;;;;;;2343517;55;20971;-66
2021/09/30 15:31:48;;;;;;;0.32;0.10;;;21.20;53.30;;;;;;2343911;55;21381;-66
2021/09/30 15:34:15;;;;;;;0.85;0.15;;;21.10;53.30;;;;;;2343987;54;21038;-66
2021/09/30 15:36:43;;;;;;;0.20;0.10;;;21.10;53.40;;;;;;2590695;53;21425;-67
2021/09/30 15:39:11;;;;;;;0.32;0.10;;;21.10;53.50;;;;;;2330365;54;20991;-65
2021/09/30 15:41:37;;;;;;;0.75;0.40;;;21.00;53.30;;;;;;2339333;53;20948;-67
2021/09/30 15:44:04;;;;;;;0.62;0.15;;;21.00;53.30;;;;;;2323159;54;20959;-67
2021/09/30 15:46:31;;;;;;;1.00;0.22;;;21.00;53.30;;;;;;2334509;55;21022;-65
2021/09/30 15:48:59;;;;;;;0.68;0.22;;;20.90;53.10;;;;;;2334104;54;21090;-68
2021/09/30 15:51:25;;;;;;;2.40;0.50;;;20.90;53.20;;;;;;2344302;55;20934;-70
2021/09/30 15:53:51;;;;;;;0.45;0.20;;;20.90;53.20;;;;;;2336586;54;21050;-66
2021/09/30 15:56:18;;;;;;;1.10;0.20;;;20.80;53.20;;;;;;2330365;54;20996;-66
2021/09/30 15:58:44;;;;;;;0.40;0.10;;;20.70;52.90;;;;;;2324022;54;21933;-67
2021/09/30 16:01:12;;;;;;;0.60;0.20;;;20.60;52.90;;;;;;2343645;55;20928;-66
2021/09/30 16:03:40;;;;;;;0.55;0.10;;;20.60;52.90;;;;;;2336490;54;21405;-66
2021/09/30 16:06:06;;;;;;;1.17;0.37;;;20.50;52.90;;;;;;2331846;54;20937;-67
2021/09/30 16:08:35;;;;;;;0.68;0.28;;;20.50;53.00;;;;;;2324702;54;21428;-67
2021/09/30 16:11:02;;;;;;;1.27;0.28;;;20.40;53.00;;;;;;2343834;55;21964;-67
2021/09/30 16:13:28;;;;;;;0.47;0.20;;;20.40;53.30;;;;;;2330757;54;21479;-67
2021/09/30 16:15:54;;;;;;;1.50;0.30;;;20.30;53.40;;;;;;2436872;53;20960;-66
2021/09/30 16:18:20;;;;;;;0.73;0.20;;;20.20;53.50;;;;;;2335994;54;20935;-66